createdAt,value
2019-02-24T00:00:48.061Z,1014.76
2019-02-24T00:01:47.991Z,1014.68
2019-02-24T00:02:48.006Z,1014.76
2019-02-24T00:03:47.972Z,1014.75
2019-02-24T00:04:47.959Z,1014.74
2019-02-24T00:05:47.955Z,1014.75
2019-02-24T00:06:47.968Z,1014.77
2019-02-24T00:07:47.942Z,1014.72
2019-02-24T00:08:47.927Z,1014.79
2019-02-24T00:09:47.924Z,1014.76
2019-02-24T00:10:47.907Z,1014.72
2019-02-24T00:11:47.900Z,1014.73
2019-02-24T00:12:47.914Z,1014.77
2019-02-24T00:13:47.870Z,1014.75
2019-02-24T00:14:47.865Z,1014.75
2019-02-24T00:15:47.847Z,1014.74
2019-02-24T00:16:47.854Z,1014.77
2019-02-24T00:17:47.895Z,1014.71
2019-02-24T00:18:47.835Z,1014.71
2019-02-24T00:19:47.878Z,1014.74
2019-02-24T00:20:47.814Z,1014.77
2019-02-24T00:21:47.807Z,1014.74
2019-02-24T00:22:47.793Z,1014.77
2019-02-24T00:23:47.819Z,1014.71
2019-02-24T00:24:47.799Z,1014.68
2019-02-24T00:25:47.767Z,1014.72
2019-02-24T00:26:47.733Z,1014.70
2019-02-24T00:27:47.727Z,1014.74
2019-02-24T00:28:47.744Z,1014.73
2019-02-24T00:29:47.725Z,1014.69
2019-02-24T00:30:47.721Z,1014.69
2019-02-24T00:31:47.685Z,1014.72
2019-02-24T00:32:47.686Z,1014.75
2019-02-24T00:33:47.682Z,1014.69
2019-02-24T00:34:47.652Z,1014.67
2019-02-24T00:35:47.631Z,1014.72
2019-02-24T00:36:47.661Z,1014.70
2019-02-24T00:37:47.616Z,1014.69
2019-02-24T00:38:47.634Z,1014.71
2019-02-24T00:39:47.618Z,1014.71
2019-02-24T00:40:47.584Z,1014.74
2019-02-24T00:41:47.575Z,1014.73
2019-02-24T00:42:47.599Z,1014.69
2019-02-24T00:43:47.598Z,1014.75
2019-02-24T00:44:47.586Z,1014.68
2019-02-24T00:45:47.544Z,1014.64
2019-02-24T00:46:47.518Z,1014.65
2019-02-24T00:47:47.509Z,1014.64
2019-02-24T00:48:47.538Z,1014.69
2019-02-24T00:49:47.482Z,1014.66
2019-02-24T00:50:47.487Z,1014.68
2019-02-24T00:51:47.519Z,1014.66
2019-02-24T00:52:47.463Z,1014.64
2019-02-24T00:53:47.469Z,1014.65
2019-02-24T00:54:47.465Z,1014.66
2019-02-24T00:55:47.439Z,1014.62
2019-02-24T00:56:47.407Z,1014.65
2019-02-24T00:57:47.425Z,1014.58
2019-02-24T00:58:47.389Z,1014.59
2019-02-24T00:59:47.386Z,1014.63
2019-02-24T01:00:47.428Z,1014.62
2019-02-24T01:01:47.395Z,1014.67
2019-02-24T01:02:47.359Z,1014.61
2019-02-24T01:03:47.338Z,1014.73
2019-02-24T01:04:47.322Z,1014.70
2019-02-24T01:05:47.311Z,1014.75
2019-02-24T01:06:47.318Z,1014.70
2019-02-24T01:07:47.287Z,1014.75
2019-02-24T01:08:47.281Z,1014.70
2019-02-24T01:09:47.280Z,1014.72
2019-02-24T01:10:47.256Z,1014.71
2019-02-24T01:11:47.285Z,1014.70
2019-02-24T01:12:47.273Z,1014.69
2019-02-24T01:13:47.228Z,1014.71
2019-02-24T01:14:47.215Z,1014.71
2019-02-24T01:15:47.207Z,1014.73
2019-02-24T01:16:47.212Z,1014.71
2019-02-24T01:17:47.183Z,1014.71
2019-02-24T01:18:47.191Z,1014.64
2019-02-24T01:19:47.174Z,1014.67
2019-02-24T01:20:47.155Z,1014.75
2019-02-24T01:21:47.162Z,1014.75
2019-02-24T01:22:47.140Z,1014.75
2019-02-24T01:23:47.119Z,1014.81
2019-02-24T01:24:47.186Z,1014.80
2019-02-24T01:25:47.109Z,1014.78
2019-02-24T01:26:47.111Z,1014.76
2019-02-24T01:27:47.081Z,1014.84
2019-02-24T01:28:47.071Z,1014.73
2019-02-24T01:29:47.129Z,1014.74
2019-02-24T01:30:47.068Z,1014.73
2019-02-24T01:31:47.062Z,1014.73
2019-02-24T01:32:47.028Z,1014.72
2019-02-24T01:33:47.012Z,1014.67
2019-02-24T01:34:46.993Z,1014.67
2019-02-24T01:35:46.992Z,1014.72
2019-02-24T01:36:47.019Z,1014.66
2019-02-24T01:37:46.967Z,1014.69
2019-02-24T01:38:47.009Z,1014.66
2019-02-24T01:39:46.978Z,1014.64
2019-02-24T01:40:46.942Z,1014.63
2019-02-24T01:41:46.924Z,1014.59
2019-02-24T01:42:46.958Z,1014.60
2019-02-24T01:43:46.896Z,1014.58
2019-02-24T01:44:46.903Z,1014.64
2019-02-24T01:45:46.895Z,1014.68
2019-02-24T01:46:46.882Z,1014.60
2019-02-24T01:47:46.869Z,1014.63
2019-02-24T01:48:46.864Z,1014.62
2019-02-24T01:49:46.843Z,1014.61
2019-02-24T01:50:46.835Z,1014.63
2019-02-24T01:51:46.889Z,1014.63
2019-02-24T01:52:46.845Z,1014.63
2019-02-24T01:53:46.814Z,1014.64
2019-02-24T01:54:46.807Z,1014.65
2019-02-24T01:55:46.762Z,1014.58
2019-02-24T01:56:46.763Z,1014.62
2019-02-24T01:57:46.749Z,1014.58
2019-02-24T01:58:46.775Z,1014.65
2019-02-24T01:59:46.746Z,1014.64
2019-02-24T02:00:46.742Z,1014.61
2019-02-24T02:01:46.702Z,1014.68
2019-02-24T02:02:46.700Z,1014.65
2019-02-24T02:03:46.679Z,1014.63
2019-02-24T02:04:46.720Z,1014.60
2019-02-24T02:05:46.659Z,1014.66
2019-02-24T02:06:46.673Z,1014.63
2019-02-24T02:07:46.636Z,1014.64
2019-02-24T02:08:46.644Z,1014.57
2019-02-24T02:09:46.621Z,1014.61
2019-02-24T02:10:46.604Z,1014.64
2019-02-24T02:11:46.595Z,1014.57
2019-02-24T02:12:46.629Z,1014.60
2019-02-24T02:13:46.569Z,1014.54
2019-02-24T02:14:46.572Z,1014.60
2019-02-24T02:15:46.564Z,1014.55
2019-02-24T02:16:46.542Z,1014.55
2019-02-24T02:17:46.540Z,1014.61
2019-02-24T02:18:46.535Z,1014.53
2019-02-24T02:19:46.513Z,1014.59
2019-02-24T02:20:46.494Z,1014.57
2019-02-24T02:21:46.486Z,1014.57
2019-02-24T02:22:46.502Z,1014.56
2019-02-24T02:23:46.481Z,1014.54
2019-02-24T02:24:46.504Z,1014.52
2019-02-24T02:25:46.497Z,1014.53
2019-02-24T02:26:46.476Z,1014.54
2019-02-24T02:27:46.425Z,1014.48
2019-02-24T02:28:46.412Z,1014.46
2019-02-24T02:29:46.397Z,1014.44
2019-02-24T02:30:46.448Z,1014.45
2019-02-24T02:31:46.427Z,1014.47
2019-02-24T02:32:46.401Z,1014.39
2019-02-24T02:33:46.376Z,1014.45
2019-02-24T02:34:46.351Z,1014.38
2019-02-24T02:35:46.379Z,1014.33
2019-02-24T02:36:46.372Z,1014.27
2019-02-24T02:37:46.306Z,1014.38
2019-02-24T02:38:46.314Z,1014.28
2019-02-24T02:39:46.297Z,1014.30
2019-02-24T02:40:46.307Z,1014.28
2019-02-24T02:41:46.267Z,1014.30
2019-02-24T02:42:46.273Z,1014.24
2019-02-24T02:43:46.253Z,1014.27
2019-02-24T02:44:46.228Z,1014.31
2019-02-24T02:45:46.239Z,1014.25
2019-02-24T02:46:46.214Z,1014.30
2019-02-24T02:47:46.201Z,1014.25
2019-02-24T02:48:46.215Z,1014.26
2019-02-24T02:49:46.181Z,1014.21
2019-02-24T02:50:46.163Z,1014.19
2019-02-24T02:51:46.156Z,1014.26
2019-02-24T02:52:46.147Z,1014.23
2019-02-24T02:53:46.139Z,1014.18
2019-02-24T02:54:46.150Z,1014.17
2019-02-24T02:55:46.126Z,1014.18
2019-02-24T02:56:46.147Z,1014.22
2019-02-24T02:57:46.096Z,1014.12
2019-02-24T02:58:53.843Z,1014.19
2019-02-24T02:59:47.120Z,1014.16
2019-02-24T03:00:46.056Z,1014.10
2019-02-24T03:01:46.070Z,1014.04
2019-02-24T03:02:46.046Z,1014.06
2019-02-24T03:03:46.032Z,1014.08
2019-02-24T03:04:46.009Z,1014.11
2019-02-24T03:05:46.025Z,1014.14
2019-02-24T03:06:46.039Z,1014.04
2019-02-24T03:07:45.985Z,1014.05
2019-02-24T03:08:45.965Z,1014.03
2019-02-24T03:09:45.995Z,1013.95
2019-02-24T03:10:45.954Z,1014.03
2019-02-24T03:11:45.957Z,1014.04
2019-02-24T03:12:45.924Z,1014.02
2019-02-24T03:13:45.954Z,1013.97
2019-02-24T03:14:53.513Z,1013.97
2019-02-24T03:15:45.903Z,1013.98
2019-02-24T03:16:45.883Z,1013.93
2019-02-24T03:17:45.888Z,1013.93
2019-02-24T03:18:45.897Z,1013.90
2019-02-24T03:19:45.850Z,1013.93
2019-02-24T03:20:45.844Z,1013.95
2019-02-24T03:21:45.825Z,1013.93
2019-02-24T03:22:45.816Z,1013.86
2019-02-24T03:23:45.830Z,1013.86
2019-02-24T03:24:45.793Z,1013.92
2019-02-24T03:25:45.782Z,1013.86
2019-02-24T03:26:45.781Z,1013.92
2019-02-24T03:27:45.755Z,1013.98
2019-02-24T03:28:45.749Z,1013.91
2019-02-24T03:29:45.758Z,1013.92
2019-02-24T03:30:45.741Z,1014.01
2019-02-24T03:31:45.719Z,1013.99
2019-02-24T03:32:45.723Z,1013.96
2019-02-24T03:33:45.711Z,1013.94
2019-02-24T03:34:45.707Z,1014.02
2019-02-24T03:35:45.696Z,1014.03
2019-02-24T03:36:45.670Z,1014.02
2019-02-24T03:37:45.647Z,1013.98
2019-02-24T03:38:45.694Z,1014.03
2019-02-24T03:39:45.653Z,1013.99
2019-02-24T03:40:45.623Z,1014.06
2019-02-24T03:41:45.631Z,1014.00
2019-02-24T03:42:45.654Z,1013.98
2019-02-24T03:43:45.603Z,1014.03
2019-02-24T03:44:45.604Z,1014.01
2019-02-24T03:45:45.563Z,1014.00
2019-02-24T03:46:45.553Z,1013.99
2019-02-24T03:47:45.553Z,1014.02
2019-02-24T03:48:45.535Z,1013.97
2019-02-24T03:49:45.516Z,1013.96
2019-02-24T03:50:45.509Z,1013.99
2019-02-24T03:51:45.493Z,1013.96
2019-02-24T03:52:45.519Z,1013.92
2019-02-24T03:53:45.555Z,1013.89
2019-02-24T03:54:45.468Z,1013.94
2019-02-24T03:55:45.450Z,1013.91
2019-02-24T03:56:45.453Z,1013.91
2019-02-24T03:57:45.458Z,1013.89
2019-02-24T03:58:45.438Z,1013.95
2019-02-24T03:59:45.434Z,1013.94
2019-02-24T04:00:45.456Z,1013.97
2019-02-24T04:01:45.392Z,1013.96
2019-02-24T04:02:45.373Z,1013.92
2019-02-24T04:03:45.373Z,1013.96
2019-02-24T04:04:45.360Z,1013.93
2019-02-24T04:05:45.378Z,1013.96
2019-02-24T04:06:45.383Z,1013.96
2019-02-24T04:07:45.340Z,1013.96
2019-02-24T04:08:45.314Z,1013.97
2019-02-24T04:09:45.299Z,1014.02
2019-02-24T04:10:45.341Z,1014.03
2019-02-24T04:11:45.295Z,1013.97
2019-02-24T04:12:45.284Z,1013.97
2019-02-24T04:13:45.269Z,1013.99
2019-02-24T04:14:45.251Z,1014.03
2019-02-24T04:15:45.274Z,1014.01
2019-02-24T04:16:45.234Z,1014.01
2019-02-24T04:17:45.228Z,1014.08
2019-02-24T04:18:45.200Z,1014.04
2019-02-24T04:19:45.201Z,1014.07
2019-02-24T04:20:45.186Z,1014.06
2019-02-24T04:21:45.186Z,1014.09
2019-02-24T04:22:45.173Z,1014.08
2019-02-24T04:23:45.172Z,1014.06
2019-02-24T04:24:45.150Z,1014.10
2019-02-24T04:25:45.138Z,1014.04
2019-02-24T04:26:45.144Z,1014.08
2019-02-24T04:27:45.114Z,1014.06
2019-02-24T04:28:45.100Z,1014.11
2019-02-24T04:29:45.113Z,1014.15
2019-02-24T04:30:45.140Z,1014.09
2019-02-24T04:31:45.087Z,1014.13
2019-02-24T04:32:45.046Z,1014.14
2019-02-24T04:33:45.038Z,1014.10
2019-02-24T04:34:45.070Z,1014.12
2019-02-24T04:35:45.061Z,1014.11
2019-02-24T04:36:45.025Z,1014.09
2019-02-24T04:37:45.012Z,1014.14
2019-02-24T04:38:44.984Z,1014.11
2019-02-24T04:39:44.979Z,1014.05
2019-02-24T04:40:44.989Z,1014.12
2019-02-24T04:41:44.971Z,1014.13
2019-02-24T04:42:44.983Z,1014.07
2019-02-24T04:43:44.949Z,1014.07
2019-02-24T04:44:44.919Z,1014.09
2019-02-24T04:45:44.924Z,1014.09
2019-02-24T04:46:44.907Z,1014.13
2019-02-24T04:47:44.929Z,1014.16
2019-02-24T04:48:44.884Z,1014.11
2019-02-24T04:49:44.867Z,1014.11
2019-02-24T04:50:44.867Z,1014.18
2019-02-24T04:51:44.842Z,1014.18
2019-02-24T04:52:44.830Z,1014.17
2019-02-24T04:53:44.859Z,1014.19
2019-02-24T04:54:44.858Z,1014.16
2019-02-24T04:55:44.808Z,1014.15
2019-02-24T04:56:44.792Z,1014.11
2019-02-24T04:57:44.778Z,1014.20
2019-02-24T04:58:44.793Z,1014.10
2019-02-24T04:59:44.778Z,1014.09
2019-02-24T05:00:44.748Z,1014.03
2019-02-24T05:01:44.740Z,1014.03
2019-02-24T05:02:44.739Z,1014.02
2019-02-24T05:03:44.714Z,1013.93
2019-02-24T05:04:44.717Z,1014.01
2019-02-24T05:05:44.717Z,1013.96
2019-02-24T05:06:44.682Z,1014.01
2019-02-24T05:07:44.683Z,1013.99
2019-02-24T05:08:44.701Z,1014.00
2019-02-24T05:09:44.665Z,1013.98
2019-02-24T05:10:44.639Z,1013.95
2019-02-24T05:11:44.672Z,1013.95
2019-02-24T05:12:44.641Z,1013.99
2019-02-24T05:13:44.629Z,1014.00
2019-02-24T05:14:44.602Z,1014.03
2019-02-24T05:15:44.587Z,1014.03
2019-02-24T05:16:44.579Z,1014.03
2019-02-24T05:17:44.599Z,1014.01
2019-02-24T05:18:44.567Z,1014.04
2019-02-24T05:19:52.177Z,1014.05
2019-02-24T05:20:44.533Z,1014.06
2019-02-24T05:21:44.588Z,1014.08
2019-02-24T05:22:53.747Z,1014.09
2019-02-24T05:23:44.503Z,1014.07
2019-02-24T05:24:44.489Z,1014.10
2019-02-24T05:25:44.476Z,1014.11
2019-02-24T05:26:44.476Z,1014.13
2019-02-24T05:27:53.074Z,1014.16
2019-02-24T05:28:44.466Z,1014.19
2019-02-24T05:29:46.131Z,1014.21
2019-02-24T05:30:44.451Z,1014.17
2019-02-24T05:31:44.414Z,1014.19
2019-02-24T05:32:44.406Z,1014.19
2019-02-24T05:33:44.393Z,1014.20
2019-02-24T05:34:44.399Z,1014.23
2019-02-24T05:35:44.371Z,1014.27
2019-02-24T05:36:44.357Z,1014.27
2019-02-24T05:37:44.361Z,1014.21
2019-02-24T05:38:44.336Z,1014.24
2019-02-24T05:39:44.328Z,1014.30
2019-02-24T05:40:44.356Z,1014.29
2019-02-24T05:41:44.349Z,1014.25
2019-02-24T05:42:44.297Z,1014.31
2019-02-24T05:43:44.304Z,1014.32
2019-02-24T05:44:44.282Z,1014.34
2019-02-24T05:45:44.305Z,1014.32
2019-02-24T05:46:44.276Z,1014.43
2019-02-24T05:47:44.235Z,1014.40
2019-02-24T05:48:44.248Z,1014.44
2019-02-24T05:49:44.221Z,1014.44
2019-02-24T05:50:44.220Z,1014.41
2019-02-24T05:51:44.201Z,1014.43
2019-02-24T05:52:44.195Z,1014.47
2019-02-24T05:53:44.169Z,1014.46
2019-02-24T05:54:44.214Z,1014.40
2019-02-24T05:55:44.182Z,1014.42
2019-02-24T05:56:44.140Z,1014.48
2019-02-24T05:57:44.129Z,1014.39
2019-02-24T05:58:44.186Z,1014.42
2019-02-24T05:59:44.114Z,1014.40
2019-02-24T06:00:44.094Z,1014.44
2019-02-24T06:01:44.091Z,1014.48
2019-02-24T06:02:44.071Z,1014.46
2019-02-24T06:03:44.087Z,1014.48
2019-02-24T06:04:44.097Z,1014.45
2019-02-24T06:05:44.060Z,1014.46
2019-02-24T06:06:44.042Z,1014.44
2019-02-24T06:07:44.055Z,1014.44
2019-02-24T06:08:44.021Z,1014.45
2019-02-24T06:09:44.042Z,1014.44
2019-02-24T06:10:44.011Z,1014.42
2019-02-24T06:11:43.975Z,1014.43
2019-02-24T06:12:43.961Z,1014.42
2019-02-24T06:13:44.018Z,1014.43
2019-02-24T06:14:43.955Z,1014.38
2019-02-24T06:15:43.950Z,1014.37
2019-02-24T06:16:43.942Z,1014.36
2019-02-24T06:17:43.935Z,1014.32
2019-02-24T06:18:43.907Z,1014.37
2019-02-24T06:19:43.921Z,1014.27
2019-02-24T06:20:43.880Z,1014.30
2019-02-24T06:21:43.871Z,1014.33
2019-02-24T06:22:43.876Z,1014.29
2019-02-24T06:23:43.849Z,1014.36
2019-02-24T06:24:43.834Z,1014.27
2019-02-24T06:25:43.831Z,1014.32
2019-02-24T06:26:43.808Z,1014.32
2019-02-24T06:27:43.828Z,1014.34
2019-02-24T06:28:43.821Z,1014.34
2019-02-24T06:29:43.773Z,1014.28
2019-02-24T06:30:43.766Z,1014.34
2019-02-24T06:31:43.754Z,1014.27
2019-02-24T06:32:43.754Z,1014.40
2019-02-24T06:33:43.739Z,1014.40
2019-02-24T06:34:43.757Z,1014.39
2019-02-24T06:35:43.707Z,1014.42
2019-02-24T06:36:43.695Z,1014.45
2019-02-24T06:37:43.687Z,1014.49
2019-02-24T06:38:43.683Z,1014.53
2019-02-24T06:39:43.673Z,1014.56
2019-02-24T06:40:43.706Z,1014.58
2019-02-24T06:41:43.675Z,1014.60
2019-02-24T06:42:43.630Z,1014.63
2019-02-24T06:43:43.625Z,1014.67
2019-02-24T06:44:43.617Z,1014.75
2019-02-24T06:45:43.612Z,1014.70
2019-02-24T06:46:43.633Z,1014.72
2019-02-24T06:47:43.593Z,1014.79
2019-02-24T06:48:43.572Z,1014.80
2019-02-24T06:49:43.564Z,1014.79
2019-02-24T06:50:43.546Z,1014.76
2019-02-24T06:51:43.574Z,1014.81
2019-02-24T06:52:43.562Z,1014.80
2019-02-24T06:53:43.520Z,1014.88
2019-02-24T06:54:43.498Z,1014.80
2019-02-24T06:55:43.488Z,1014.94
2019-02-24T06:56:43.487Z,1014.93
2019-02-24T06:57:43.480Z,1014.91
2019-02-24T06:58:43.474Z,1014.94
2019-02-24T06:59:43.444Z,1015.03
2019-02-24T07:00:43.467Z,1015.13
2019-02-24T07:01:43.463Z,1015.11
2019-02-24T07:02:43.423Z,1015.16
2019-02-24T07:03:43.408Z,1015.14
2019-02-24T07:04:43.428Z,1015.20
2019-02-24T07:05:43.378Z,1015.16
2019-02-24T07:06:43.395Z,1015.19
2019-02-24T07:07:43.372Z,1015.15
2019-02-24T07:08:43.350Z,1015.14
2019-02-24T07:09:43.339Z,1015.12
2019-02-24T07:10:43.386Z,1015.18
2019-02-24T07:11:43.365Z,1015.19
2019-02-24T07:12:43.318Z,1015.14
2019-02-24T07:13:43.299Z,1015.17
2019-02-24T07:14:43.296Z,1015.16
2019-02-24T07:15:43.275Z,1015.15
2019-02-24T07:16:43.298Z,1015.16
2019-02-24T07:17:43.252Z,1015.15
2019-02-24T07:18:43.242Z,1015.15
2019-02-24T07:19:43.269Z,1015.12
2019-02-24T07:20:43.237Z,1015.09
2019-02-24T07:21:43.206Z,1015.05
2019-02-24T07:22:43.215Z,1015.03
2019-02-24T07:23:43.190Z,1015.05
2019-02-24T07:24:43.172Z,1015.02
2019-02-24T07:25:43.188Z,1015.03
2019-02-24T07:26:43.182Z,1015.00
2019-02-24T07:27:43.159Z,1014.91
2019-02-24T07:28:43.158Z,1014.87
2019-02-24T07:29:43.145Z,1014.83
2019-02-24T07:30:43.105Z,1014.82
2019-02-24T07:31:43.098Z,1014.81
2019-02-24T07:32:43.099Z,1014.77
2019-02-24T07:33:43.111Z,1014.77
2019-02-24T07:34:43.090Z,1014.76
2019-02-24T07:35:43.073Z,1014.76
2019-02-24T07:36:43.083Z,1014.81
2019-02-24T07:37:43.047Z,1014.79
2019-02-24T07:38:43.030Z,1014.82
2019-02-24T07:39:43.017Z,1014.85
2019-02-24T07:40:43.023Z,1014.82
2019-02-24T07:41:42.991Z,1014.84
2019-02-24T07:42:42.978Z,1014.83
2019-02-24T07:43:43.001Z,1014.90
2019-02-24T07:44:42.989Z,1014.90
2019-02-24T07:45:42.947Z,1014.98
2019-02-24T07:46:42.984Z,1014.91
2019-02-24T07:47:42.956Z,1014.95
2019-02-24T07:48:42.973Z,1014.96
2019-02-24T07:49:42.903Z,1014.96
2019-02-24T07:50:42.897Z,1015.00
2019-02-24T07:51:42.886Z,1015.00
2019-02-24T07:52:42.931Z,1015.01
2019-02-24T07:53:42.877Z,1015.00
2019-02-24T07:54:42.862Z,1014.97
2019-02-24T07:55:42.863Z,1015.01
2019-02-24T07:56:42.844Z,1015.08
2019-02-24T07:57:42.833Z,1015.07
2019-02-24T07:58:42.829Z,1015.01
2019-02-24T07:59:42.838Z,1015.01
2019-02-24T08:00:42.796Z,1015.01
2019-02-24T08:01:42.805Z,1015.04
2019-02-24T08:02:42.776Z,1015.02
2019-02-24T08:03:42.765Z,1015.03
2019-02-24T08:04:42.768Z,1014.96
2019-02-24T08:05:42.751Z,1014.98
2019-02-24T08:06:42.760Z,1014.90
2019-02-24T08:07:42.752Z,1014.90
2019-02-24T08:08:42.712Z,1014.89
2019-02-24T08:09:42.750Z,1014.89
2019-02-24T08:10:42.732Z,1014.91
2019-02-24T08:11:42.716Z,1014.85
2019-02-24T08:12:42.666Z,1014.89
2019-02-24T08:13:44.042Z,1014.81
2019-02-24T08:14:42.648Z,1014.73
2019-02-24T08:15:42.647Z,1014.76
2019-02-24T08:16:42.663Z,1014.81
2019-02-24T08:17:42.648Z,1014.74
2019-02-24T08:18:49.287Z,1014.75
2019-02-24T08:19:43.593Z,1014.72
2019-02-24T08:20:42.600Z,1014.78
2019-02-24T08:21:42.575Z,1014.70
2019-02-24T08:22:42.625Z,1014.71
2019-02-24T08:23:42.567Z,1014.71
2019-02-24T08:24:42.556Z,1014.79
2019-02-24T08:25:42.569Z,1014.79
2019-02-24T08:26:42.540Z,1014.78
2019-02-24T08:27:42.560Z,1014.81
2019-02-24T08:28:42.544Z,1014.84
2019-02-24T08:29:42.497Z,1014.83
2019-02-24T08:30:42.539Z,1014.83
2019-02-24T08:31:42.481Z,1014.86
2019-02-24T08:32:42.475Z,1014.85
2019-02-24T08:33:42.454Z,1014.87
2019-02-24T08:34:42.474Z,1014.88
2019-02-24T08:35:42.430Z,1014.89
2019-02-24T08:36:42.421Z,1014.92
2019-02-24T08:37:42.412Z,1014.89
2019-02-24T08:38:42.407Z,1014.83
2019-02-24T08:39:42.389Z,1014.91
2019-02-24T08:40:42.398Z,1014.95
2019-02-24T08:41:42.377Z,1014.97
2019-02-24T08:42:42.363Z,1014.95
2019-02-24T08:43:42.347Z,1014.96
2019-02-24T08:44:42.369Z,1014.91
2019-02-24T08:45:42.355Z,1014.91
2019-02-24T08:46:42.367Z,1014.91
2019-02-24T08:47:42.334Z,1014.89
2019-02-24T08:48:42.311Z,1014.86
2019-02-24T08:49:42.280Z,1014.92
2019-02-24T08:50:42.350Z,1014.95
2019-02-24T08:51:42.296Z,1014.92
2019-02-24T08:52:42.311Z,1014.96
2019-02-24T08:53:42.240Z,1015.05
2019-02-24T08:54:42.248Z,1015.06
2019-02-24T08:55:42.233Z,1015.12
2019-02-24T08:56:42.227Z,1015.22
2019-02-24T08:57:42.246Z,1015.21
2019-02-24T08:58:42.208Z,1015.30
2019-02-24T08:59:42.203Z,1015.34
2019-02-24T09:00:50.515Z,1015.34
2019-02-24T09:01:43.148Z,1015.36
2019-02-24T09:02:42.162Z,1015.42
2019-02-24T09:03:42.131Z,1015.48
2019-02-24T09:04:42.145Z,1015.42
2019-02-24T09:05:42.114Z,1015.41
2019-02-24T09:06:42.109Z,1015.41
2019-02-24T09:07:42.079Z,1015.45
2019-02-24T09:08:42.095Z,1015.44
2019-02-24T09:09:42.063Z,1015.36
2019-02-24T09:10:42.080Z,1015.41
2019-02-24T09:11:42.037Z,1015.36
2019-02-24T09:12:42.029Z,1015.42
2019-02-24T09:13:42.012Z,1015.38
2019-02-24T09:14:42.031Z,1015.31
2019-02-24T09:15:41.985Z,1015.27
2019-02-24T09:16:41.996Z,1015.32
2019-02-24T09:17:41.974Z,1015.29
2019-02-24T09:18:41.965Z,1015.25
2019-02-24T09:19:41.949Z,1015.28
2019-02-24T09:20:41.943Z,1015.27
2019-02-24T09:21:41.929Z,1015.36
2019-02-24T09:22:41.962Z,1015.34
2019-02-24T09:23:41.909Z,1015.33
2019-02-24T09:24:41.907Z,1015.30
2019-02-24T09:25:41.874Z,1015.35
2019-02-24T09:26:41.899Z,1015.35
2019-02-24T09:27:41.857Z,1015.33
2019-02-24T09:28:41.866Z,1015.33
2019-02-24T09:29:41.831Z,1015.33
2019-02-24T09:30:41.834Z,1015.39
2019-02-24T09:31:41.851Z,1015.41
2019-02-24T09:32:41.832Z,1015.37
2019-02-24T09:33:41.797Z,1015.48
2019-02-24T09:34:41.801Z,1015.54
2019-02-24T09:35:41.776Z,1015.70
2019-02-24T09:36:41.758Z,1015.92
2019-02-24T09:37:41.749Z,1016.13
2019-02-24T09:38:41.742Z,1016.37
2019-02-24T09:39:41.735Z,1016.56
2019-02-24T09:40:51.308Z,1016.65
2019-02-24T09:41:41.707Z,1016.61
2019-02-24T09:42:41.685Z,1016.69
2019-02-24T09:43:49.272Z,1016.76
2019-02-24T09:44:41.662Z,1016.69
2019-02-24T09:45:41.646Z,1016.67
2019-02-24T09:46:41.656Z,1016.69
2019-02-24T09:47:46.870Z,1016.62
2019-02-24T09:48:42.630Z,1016.55
2019-02-24T09:49:41.604Z,1016.59
2019-02-24T09:50:41.589Z,1016.57
2019-02-24T09:51:41.599Z,1016.62
2019-02-24T09:52:41.590Z,1016.56
2019-02-24T09:53:41.561Z,1016.49
2019-02-24T09:54:41.540Z,1016.46
2019-02-24T09:55:41.542Z,1016.47
2019-02-24T09:56:41.543Z,1016.54
2019-02-24T09:57:41.523Z,1016.53
2019-02-24T09:58:41.852Z,1016.52
2019-02-24T09:59:41.484Z,1016.55
2019-02-24T10:00:41.488Z,1016.61
2019-02-24T10:01:41.493Z,1016.64
2019-02-24T10:02:41.466Z,1016.65
2019-02-24T10:03:41.444Z,1016.64
2019-02-24T10:04:41.460Z,1016.66
2019-02-24T10:05:41.429Z,1016.58
2019-02-24T10:06:41.440Z,1016.61
2019-02-24T10:07:41.444Z,1016.63
2019-02-24T10:08:41.385Z,1016.66
2019-02-24T10:09:41.386Z,1016.67
2019-02-24T10:10:41.380Z,1016.66
2019-02-24T10:11:41.361Z,1016.66
2019-02-24T10:12:41.359Z,1016.64
2019-02-24T10:13:41.358Z,1016.68
2019-02-24T10:14:41.322Z,1016.69
2019-02-24T10:15:41.330Z,1016.65
2019-02-24T10:16:41.327Z,1016.72
2019-02-24T10:17:41.292Z,1016.76
2019-02-24T10:18:41.282Z,1016.75
2019-02-24T10:19:41.281Z,1016.81
2019-02-24T10:20:41.258Z,1016.80
2019-02-24T10:21:41.239Z,1016.81
2019-02-24T10:22:41.289Z,1016.81
2019-02-24T10:23:41.237Z,1016.88
2019-02-24T10:24:41.238Z,1016.84
2019-02-24T10:25:41.228Z,1016.88
2019-02-24T10:26:41.195Z,1016.87
2019-02-24T10:27:41.184Z,1016.83
2019-02-24T10:28:41.252Z,1016.76
2019-02-24T10:29:41.154Z,1016.79
2019-02-24T10:30:41.164Z,1016.76
2019-02-24T10:31:41.135Z,1016.78
2019-02-24T10:32:41.148Z,1016.81
2019-02-24T10:33:41.166Z,1016.87
2019-02-24T10:34:41.132Z,1016.84
2019-02-24T10:35:41.105Z,1016.90
2019-02-24T10:36:41.086Z,1016.98
2019-02-24T10:37:41.081Z,1017.04
2019-02-24T10:38:41.052Z,1017.09
2019-02-24T10:39:41.074Z,1017.13
2019-02-24T10:40:41.353Z,1017.14
2019-02-24T10:41:41.034Z,1017.08
2019-02-24T10:42:41.009Z,1017.16
2019-02-24T10:43:41.000Z,1017.20
2019-02-24T10:44:41.005Z,1017.13
2019-02-24T10:45:40.993Z,1017.15
2019-02-24T10:46:40.985Z,1017.14
2019-02-24T10:47:40.966Z,1017.10
2019-02-24T10:48:40.986Z,1017.09
2019-02-24T10:49:40.952Z,1017.03
2019-02-24T10:50:40.922Z,1017.07
2019-02-24T10:51:40.901Z,1017.08
2019-02-24T10:52:40.972Z,1017.12
2019-02-24T10:53:40.943Z,1017.12
2019-02-24T10:54:40.881Z,1016.96
2019-02-24T10:55:40.862Z,1016.27
2019-02-24T10:56:40.847Z,1015.72
2019-02-24T10:57:40.830Z,1015.59
2019-02-24T10:58:40.874Z,1015.64
2019-02-24T10:59:40.833Z,1015.59
2019-02-24T11:00:40.830Z,1015.60
2019-02-24T11:01:40.786Z,1015.60
2019-02-24T11:02:40.780Z,1015.60
2019-02-24T11:03:40.786Z,1015.60
2019-02-24T11:04:40.770Z,1015.56
2019-02-24T11:05:40.754Z,1015.56
2019-02-24T11:06:40.736Z,1015.49
2019-02-24T11:07:40.745Z,1015.52
2019-02-24T11:08:40.730Z,1015.53
2019-02-24T11:09:40.733Z,1015.55
2019-02-24T11:10:40.699Z,1015.56
2019-02-24T11:11:40.681Z,1015.64
2019-02-24T11:12:40.697Z,1015.62
2019-02-24T11:13:40.684Z,1015.59
2019-02-24T11:14:40.648Z,1015.68
2019-02-24T11:15:40.665Z,1015.63
2019-02-24T11:16:40.633Z,1015.62
2019-02-24T11:17:40.623Z,1015.58
2019-02-24T11:18:40.602Z,1015.57
2019-02-24T11:19:40.597Z,1015.62
2019-02-24T11:20:40.572Z,1015.54
2019-02-24T11:21:40.559Z,1015.53
2019-02-24T11:22:40.589Z,1015.55
2019-02-24T11:23:40.599Z,1015.54
2019-02-24T11:24:40.526Z,1015.48
2019-02-24T11:25:40.515Z,1015.49
2019-02-24T11:26:40.534Z,1015.51
2019-02-24T11:27:40.527Z,1015.43
2019-02-24T11:28:40.504Z,1015.48
2019-02-24T11:29:40.473Z,1015.43
2019-02-24T11:30:40.454Z,1015.51
2019-02-24T11:31:40.494Z,1015.45
2019-02-24T11:32:40.468Z,1015.49
2019-02-24T11:33:40.444Z,1015.44
2019-02-24T11:34:40.442Z,1015.41
2019-02-24T11:35:40.403Z,1015.36
2019-02-24T11:36:40.428Z,1015.39
2019-02-24T11:37:40.408Z,1015.48
2019-02-24T11:38:40.380Z,1015.44
2019-02-24T11:39:40.352Z,1015.38
2019-02-24T11:40:40.365Z,1015.44
2019-02-24T11:41:40.411Z,1015.42
2019-02-24T11:42:40.375Z,1015.46
2019-02-24T11:43:40.304Z,1015.40
2019-02-24T11:44:40.296Z,1015.42
2019-02-24T11:45:40.300Z,1015.38
2019-02-24T11:46:40.311Z,1015.42
2019-02-24T11:47:40.278Z,1015.35
2019-02-24T11:48:40.255Z,1015.37
2019-02-24T11:49:40.252Z,1015.38
2019-02-24T11:50:40.220Z,1015.37
2019-02-24T11:51:40.210Z,1015.35
2019-02-24T11:52:40.269Z,1015.36
2019-02-24T11:53:40.216Z,1015.36
2019-02-24T11:54:40.221Z,1015.36
2019-02-24T11:55:40.167Z,1015.29
2019-02-24T11:56:40.194Z,1015.31
2019-02-24T11:57:40.160Z,1015.30
2019-02-24T11:58:40.156Z,1015.30
2019-02-24T11:59:40.125Z,1015.34
2019-02-24T12:00:40.107Z,1015.31
2019-02-24T12:01:47.330Z,1015.33
2019-02-24T12:02:41.851Z,1015.33
2019-02-24T12:03:40.083Z,1015.29
2019-02-24T12:04:40.106Z,1015.23
2019-02-24T12:05:40.095Z,1015.19